New Wilmington, Pennsylvania
Current Conditions -  °F | °C
As of 9:51 PM on Tuesday 25 Nov 2014 (Local Time) from KYNG Reporting Station
Overcast Overcast  
Wind Chill: 28°   Ceiling: 3300
Heat Index: 33°   Visibility: 10mi
Dew Point: 27°   Wind: 6mph
Humidity: 78%   Direction: 330°NNW
Pressure: 30.19"   Gusts: NA
Location:  41.12°N, 80.33°W
Report Text: KYNG 260251Z 33005KT 10SM SCT025 OVC033 01/M03 A3019 RMK AO2 SLP233 T00061028 51018
Loading
Personal Weather Stations






























Interactive Weather Map New forecast layout! Learn more

10-Day Weather Forecast

Advertisements
Track Severe Weather on mobile